Saturday, August 02, 2014
00:31 UTC
  |  Log In   |  Register Free
Airport Search:

Raton Municipal/Crews Field Airport
(KRTN)

Raton Municipal/Crews Field Airport Diagram
No Airport Diagram Available

FAA data valid effective July 24, 2014 until September 18, 2014 (unless otherwise noted).

 
 
 
 
 
 
 
 
 
 
 
 
 
 

Current Aviation Weather for Raton Municipal/Crews Field Airport (KRTN)

The most recent METAR observation for KRTN was updated at: 0637 UTC
METAR Summary (Translated METAR)
KRTN
280637Z AUTO 20011KT 9SM -RA SCT007 BKN038 OVC095 16/15 A3051 RMK AO2 P0006 T01560150 TSNO
KTAD
(32 nm NE from KRTN)
281854Z AUTO 07006KT 10SM FEW095 24/13 A3037 RMK AO2 SLP206 T02390133
TAF
No TAF information found within 50 nm of KRTN
  Airport Weather Conditions for KRTN

 Current Weather at RTN
58° F
Light Rain
East winds at 6.9 mph
RTN NOAA Radar

Pressure: 30.32 in
Humidity: 93%
Wind: East at 6.9 MPH (6 KT)
Dew Point: 55.9°F
Visibility: 10.00 mi


Airport Weather Forecast for KRTN

Translated METAR and TAF for KRTN
Translated METAR for KRTN (0024 UTC 02 August 2014)
found at http://aviationweather.gov/adds/metars/
 
METAR text: KRTN 012353Z AUTO 09006KT 10SM -RA OVC090 14/13 A3032 RMK AO2 SLP204 P0014 60041 T01440133 10211 20139 50002 TSNO
Conditions at: KRTN (RATON , NM, US) observed 2353 UTC 01 August 2014
Temperature: 14.4°C (58°F)
Dewpoint: 13.3°C (56°F) [RH = 93%]
Pressure (altimeter): 30.32 inches Hg (1026.8 mb)
[Sea-level pressure: 1020.4 mb]
Winds: from the E (90 degrees) at 7 MPH (6 knots; 3.1 m/s)
Visibility: 10 or more miles (16+ km)
Ceiling: 9000 feet AGL
Clouds: overcast cloud deck at 9000 feet AGL
Weather: -RA  (light rain)
Translated TAF for KRTN

There is no translated TAF available for this airport

Find All Airport Services Find A Hotel Find A Rental Car Find A Golf Course Find A Restaurant $100 Hamburger



FBO's on the Field
FBO Company Facility Photos Services Transportation Aviation Fuel Prices: Prices include tax
Catering Weather Repair Courtesy Rental Type 100LL JetA JetA+ MOGAS 8087
 
Pegasus Aviation

This FBO has not yet been rated
FS:Phillips66
Last Updated: Jul-01
Login to update fuel prices
SS:
Contact Pegasus AviationMore FBO Information
 
Add another FBO Facility Photos Catering Weather Repair Courtesy Rental Type 100LL JetA JetA+ MOGAS 8087
Services Transportation Aviation Fuel Prices: Prices include tax


GlobalAir.com Airport Resource Center model-print
model-print
model-print
model-print